Headquarters, Valles Caldera, New Mexico Weather observations

Data are for 10 minute period ending at time listed.
 Day   Time   Solar   Ave.   Ave.  Ave.  Vector  Max.   Baro.   Total    
  of    of     Rad.   Air    Rel.  Wind   Wind   Wind  Press.  Precip.   
Year   Day            Temp.  Hum.  Speed  Dir.   Gust                    
2014   (MST)  Kw/m2    F      %     mph   deg.    mph    mb.     in.     
-------------------------------------------------------------------------
 355   18:20   0.00   33.8    71    6.1   294    14.9   733.6    0.00 
 355   18:30   0.00   33.8    71    8.3   298    18.5   733.6    0.00 
 355   18:40   0.00   33.9    71    8.0   298    16.1   733.6    0.00 
 355   18:50   0.00   34.3    70    7.2   294    22.1   733.8    0.00 
 355   19:00   0.00   34.3    70    6.0   294    13.7   733.7    0.00 
 355   19:10   0.00   34.3    70    6.9   296    16.7   733.6    0.00 
 355   19:20   0.00   34.5    70    3.5   291     6.6   733.8    0.00 
 355   19:30   0.00   34.4    70    4.5   293    11.9   733.6    0.00 
 355   19:40   0.00   34.4    70    5.3   295    14.3   733.5    0.00 
 355   19:50   0.00   34.5    71    7.6   298    16.1   733.5    0.00 
 355   20:00   0.00   34.2    72   10.3   302    17.3   733.5    0.00 
 355   20:10   0.00   33.8    72    8.2   299    14.9   733.5    0.00 
 355   20:20   0.00   33.6    73    9.1   300    16.1   733.4    0.00 
 355   20:30   0.00   33.7    73    8.6   299    17.3   733.3    0.00 
 355   20:40   0.00   33.9    72    8.6   299    17.9   733.4    0.00 
 355   20:50   0.00   33.8    72    9.8   302    19.7   733.2    0.00 
 355   21:00   0.00   33.7    72    8.9   300    16.7   733.2    0.00 
 355   21:10   0.00   33.7    73   11.4   306    20.3   733.0    0.00 
 355   21:20   0.00   33.9    73   10.3   303    19.7   732.9    0.00 
 355   21:30   0.00   34.0    72    8.6   299    16.1   733.0    0.00 
 355   21:40   0.00   34.1    72    8.4   299    14.9   733.0    0.00 
 355   21:50   0.00   34.1    73   11.0   303    18.5   732.9    0.00 
 355   22:00   0.00   34.1    72   12.1   306    17.9   732.9    0.00 
 355   22:10   0.00   34.0    72   12.4   308    21.5   732.7    0.00 
 355   22:20   0.00   33.8    73   13.6   311    28.6   732.7    0.00 
 355   22:30   0.00   33.3    74   13.1   309    25.6   732.9    0.00 
 355   22:40   0.00   33.3    74   14.3   312    26.8   732.8    0.00 
 355   22:50   0.00   33.2    75   14.7   311    26.2   732.9    0.00 
 355   23:00   0.00   33.3    75   13.4   309    25.0   733.1    0.00 
 355   23:10   0.00   33.5    74   13.6   310    28.6   733.0    0.00 
 355   23:20   0.00   33.5    74   14.3   312    25.6   732.9    0.00 
 355   23:30   0.00   33.3    76   16.1   319    36.4   732.7    0.00 
 355   23:40   0.00   33.0    77   16.3   316    30.4   732.4    0.00 
 355   23:50   0.00   32.9    77    9.5   302    20.3   732.8    0.00 
 356    0:00   0.00   33.1    77    9.2   301    19.1   732.8    0.00 
 356    0:10   0.00   33.2    76    7.7   296    14.9   732.6    0.00 
 356    0:20   0.00   33.2    76   14.7   312    26.8   732.3    0.00 
 356    0:30   0.00   33.1    77   10.9   306    25.0   732.2    0.00 
 356    0:40   0.00   33.1    77   10.2   302    22.7   732.1    0.00 
 356    0:50   0.00   33.2    77   12.4   308    25.0   732.1    0.00 
 356    1:00   0.00   33.4    76    5.9   295    13.7   732.3    0.00 
 356    1:10   0.00   33.6    76    8.2   299    22.1   732.2    0.00 
 356    1:20   0.00   33.8    74   10.3   297    21.5   732.1    0.00 
 356    1:30   0.00   33.8    74   10.7   302    32.8   732.1    0.00 
 356    1:40   0.00   34.1    73    6.7   293    17.9   732.1    0.00 
 356    1:50   0.00   34.2    72    9.8   300    28.0   732.1    0.00 
 356    2:00   0.00   34.3    71    8.2   296    24.5   732.1    0.00 
 356    2:10   0.00   34.5    71   10.8   298    23.9   732.0    0.00 
 356    2:20   0.00   34.0    73    8.4   298    25.0   731.9    0.00 
 356    2:30   0.00   33.9    73   10.0   301    21.5   731.8    0.00 
 356    2:40   0.00   33.7    74    9.8   296    19.1   731.9    0.00 
 356    2:50   0.00   33.9    73   10.0   302    20.9   732.1    0.00 
 356    3:00   0.00   33.8    72    5.2   294    11.9   732.0    0.00 
 356    3:10   0.00   34.1    70    8.2   294    19.1   732.1    0.00 
 356    3:20   0.00   34.4    69    8.6   293    25.6   732.1    0.00 
 356    3:30   0.00   34.4    69    8.4   295    22.7   732.1    0.00 
 356    3:40   0.00   34.5    68    7.6   288    24.5   732.1    0.00 
 356    3:50   0.00   34.3    68    8.9   294    36.4   731.9    0.00 
 356    4:00   0.00   34.3    68    8.6   292    20.9   731.8    0.00 
 356    4:10   0.00   34.0    68    8.8   292    20.9   731.9    0.00 
 356    4:20   0.00   33.9    69    7.3   294    20.3   732.1    0.00 
 356    4:30   0.00   33.9    69   10.9   287    25.0   732.1    0.00 
 356    4:40   0.00   33.9    69   10.7   291    28.6   732.1    0.00 
 356    4:50   0.00   33.8    69    6.9   292    15.5   732.1    0.00 
 356    5:00   0.00   33.7    70    6.4   294    15.5   732.2    0.00 
 356    5:10   0.00   33.6    71    8.1   292    23.3   732.3    0.00 
 356    5:20   0.00   33.5    72    6.5   293    15.5   732.5    0.00 
 356    5:30   0.00   33.6    72    8.0   290    24.5   732.6    0.00 
 356    5:40   0.00   33.5    73    8.8   293    26.2   732.6    0.00 
 356    5:50   0.00   33.3    74    7.8   295    20.9   732.3    0.00 
 356    6:00   0.00   33.2    74    5.8   295    27.4   732.4    0.00 
 356    6:10   0.00   33.2    74    7.8   296    18.5   732.6    0.00 
 356    6:20   0.00   33.2    73    9.1   298    20.9   732.6    0.00 
 356    6:30   0.00   33.2    73    8.3   296    18.5   732.7    0.00 
 356    6:40   0.00   33.0    74    6.5   294    14.3   732.7    0.00 
 356    6:50   0.00   33.3    73    8.1   292    17.3   732.7    0.00 
 356    7:00   0.00   33.3    72    8.2   296    18.5   732.7    0.00 
 356    7:10   0.00   33.5    71    9.6   291    19.1   732.7    0.00 
 356    7:20   0.00   33.5    70    9.0   295    22.7   732.6    0.00 
 356    7:30   0.01   33.5    70    7.4   292    17.3   732.1    0.00 
 356    7:40   0.02   33.5    71    7.1   295    17.3   732.5    0.00 
 356    7:50   0.01   33.3    73    6.2   294    17.9   732.4    0.00 
 356    8:00   0.02   33.3    73    6.8   294    19.7   732.3    0.00 
 356    8:10   0.04   33.4    73    7.3   296    17.9   732.3    0.00 
 356    8:20   0.07   33.5    74    7.0   297    20.3   732.5    0.00 
 356    8:30   0.12   34.3    71    7.1   295    25.6   732.4    0.00 
 356    8:40   0.14   34.2    71   10.5   302    32.2   732.2    0.00 
 356    8:50   0.23   35.5    68    7.7   298    15.5   732.2    0.00 
 356    9:00   0.20   35.8    66   11.5   305    31.0   732.2    0.00 
 356    9:10   0.26   36.2    65    8.7   301    17.3   732.2    0.00 
 356    9:20   0.21   36.4    64    7.4   297    19.1   732.3    0.00 
 356    9:30   0.25   35.9    66   10.4   302    25.6   732.2    0.00 
 356    9:40   0.33   36.7    64   10.9   305    25.0   732.1    0.00 
 356    9:50   0.37   37.1    64    8.7   300    19.7   731.9    0.00 
 356   10:00   0.32   37.9    62   11.4   304    24.5   732.0    0.00 
 356   10:10   0.31   36.3    66   12.5   307    23.9   732.1    0.00 
 356   10:20   0.38   36.6    65   10.6   301    24.5   732.1    0.00 
 356   10:30   0.34   36.9    66   12.3   307    22.1   732.0    0.00 
 356   10:40   0.33   36.5    67   11.7   305    20.9   731.8    0.00 
 356   10:50   0.29   36.0    68   12.4   309    24.5   731.7    0.00 
 356   11:00   0.40   36.4    67   12.8   309    28.6   731.4    0.00 
 356   11:10   0.37   36.6    67   13.8   311    29.2   731.2    0.00 
 356   11:20   0.38   36.1    68   15.8   316    27.4   730.9    0.00 
 356   11:30   0.33   36.8    66   10.7   303    22.7   730.6    0.00 
 356   11:40   0.21   36.3    66   10.6   303    21.5   730.2    0.00 
 356   11:50   0.18   36.4    66   10.1   301    21.5   730.0    0.00 
 356   12:00   0.21   36.2    68   11.4   304    24.5   729.9    0.00 
 356   12:10   0.17   36.2    68   11.2   304    25.0   729.9    0.00 
 356   12:20   0.16   35.3    72   15.0   314    32.2   729.5    0.00 
 356   12:30   0.11   34.8    75    9.5   301    19.1   729.3    0.00 
 356   12:40   0.05   34.0    79   13.5   311    26.8   728.9    0.00 
 356   12:50   0.06   32.9    85   11.7   306    22.7   728.7    0.02 
 356   13:00   0.12   32.7    88   12.6   308    23.3   728.4    0.02 
 356   13:10   0.19   33.7    84   14.1   312    31.6   728.1    0.00 
 356   13:20   0.13   34.2    82   12.1   307    22.7   728.3    0.00 
 356   13:30   0.12   34.7    78   14.6   313    27.4   728.3    0.00 
 356   13:40   0.05   34.8    76   10.6   303    28.6   728.2    0.00 
 356   13:50   0.08   35.3    71   13.1   309    29.8   728.2    0.00 
 356   14:00   0.10   35.5    70   10.8   305    26.2   727.8    0.00 
 356   14:10   0.10   35.5    71   14.4   311    29.2   727.7    0.00 
 356   14:20   0.11   35.7    71   13.3   308    24.5   727.5    0.00 
 356   14:30   0.06   35.7    70   10.4   302    25.0   727.4    0.00 
 356   14:40   0.15   35.9    69   13.8   311    29.2   727.2    0.00 
 356   14:50   0.24   36.4    65   13.8   313    30.4   727.0    0.00 
 356   15:00   0.17   36.8    61   13.0   308    29.8   727.0    0.00 
 356   15:10   0.16   36.3    60   12.2   307    32.2   727.1    0.00 
 356   15:20   0.13   36.3    59    9.8   298    32.8   727.2    0.00 
 356   15:30   0.11   35.9    61    9.7   302    22.1   727.1    0.00 
 356   15:40   0.07   35.3    61    9.6   299    26.8   726.9    0.01 
 356   15:50   0.06   34.6    62   11.5   304    24.5   726.9    0.00 
 356   16:00   0.05   34.2    63    8.3   297    17.9   727.0    0.00 
 356   16:10   0.04   33.9    64    8.5   294    20.3   727.3    0.00 
 356   16:20   0.03   33.8    62    9.0   286    20.9   727.2    0.00 
 356   16:30   0.03   33.5    62    6.8   296    19.1   727.4    0.00 
 356   16:40   0.02   33.6    58    7.6   295    18.5   727.5    0.00 
 356   16:50   0.00   33.3    58   10.6   287    28.6   727.7    0.00 
 356   17:00   0.00   32.8    59   13.5   285    33.4   728.0    0.00 
 356   17:10   0.00   32.5    61    6.0   291    17.9   727.9    0.00 
 356   17:20   0.00   32.2    61    9.8   292    26.8   728.0    0.00 
 356   17:30   0.00   32.1    62    9.3   284    31.6   728.1    0.00 
 356   17:40   0.00   32.0    62   10.8   286    32.2   728.1    0.00 
 356   17:50   0.00   31.9    62   10.4   294    28.6   728.3    0.00 
 356   18:00   0.00   31.8    61    9.5   291    26.8   728.4    0.00 
 356   18:10   0.00   31.7    61   10.2   290    23.9   728.3    0.00 

Return to Headquarters, Valles Caldera graphs page.


Western Regional Climate Center,wrcc@dri.edu